Time;durP1;ratioP1;P1;durP2;ratioP2;P2;SDS_P1;SDS_P2;PMS_P1;PMS_P2;Temp;Humidity;BMP_temperature;BMP_pressure;BME280_temperature;BME280_humidity;BME280_pressure;Samples;Min_cycle;Max_cycle;Signal;HPM_P1;HPM_P2
2024/01/31 00:00:26;;;;;;;5.10;4.57;;;;;;;;;;5055427;28;20029;-55
2024/01/31 00:02:52;;;;;;;7.47;5.03;;;;;;;;;;5056239;28;20033;-55
2024/01/31 00:05:17;;;;;;;12.32;5.85;;;;;;;;;;5056725;28;20029;-55
2024/01/31 00:07:43;;;;;;;6.78;5.15;;;;;;;;;;5056264;28;20033;-53
2024/01/31 00:10:10;;;;;;;10.20;5.20;;;;;;;;;;5056358;28;20515;-56
2024/01/31 00:12:36;;;;;;;6.72;5.38;;;;;;;;;;5056417;28;20029;-52
2024/01/31 00:15:02;;;;;;;5.63;4.60;;;;;;;;;;5056495;28;20024;-55
2024/01/31 00:17:28;;;;;;;5.07;4.55;;;;;;;;;;5056016;28;20031;-54
2024/01/31 00:19:54;;;;;;;6.38;5.03;;;;;;;;;;5056138;28;20033;-54
2024/01/31 00:22:20;;;;;;;6.18;5.30;;;;;;;;;;5056891;28;20025;-56
2024/01/31 00:24:45;;;;;;;5.70;4.95;;;;;;;;;;5056090;28;20028;-53
2024/01/31 00:27:11;;;;;;;5.85;4.68;;;;;;;;;;5055824;28;20456;-56
2024/01/31 00:29:37;;;;;;;6.70;5.35;;;;;;;;;;5056898;28;20079;-55
2024/01/31 00:32:03;;;;;;;7.60;4.57;;;;;;;;;;5056070;28;20463;-55
2024/01/31 00:34:31;;;;;;;8.95;6.13;;;;;;;;;;5055925;28;20112;-53
2024/01/31 00:36:57;;;;;;;10.85;6.32;;;;;;;;;;5055911;28;20104;-54
2024/01/31 00:39:28;;;;;;;7.88;5.53;;;;;;;;;;5056339;28;20132;-53
2024/01/31 00:41:54;;;;;;;7.65;5.38;;;;;;;;;;5056168;28;20131;-51
2024/01/31 00:44:20;;;;;;;9.63;5.38;;;;;;;;;;5056204;28;20086;-56
2024/01/31 00:46:48;;;;;;;8.52;5.10;;;;;;;;;;5054412;28;20025;-54
2024/01/31 00:49:14;;;;;;;5.60;4.60;;;;;;;;;;5056329;28;20047;-55
2024/01/31 00:51:43;;;;;;;8.00;6.35;;;;;;;;;;5055658;28;20032;-54
2024/01/31 00:54:09;;;;;;;11.35;5.78;;;;;;;;;;5055924;28;20028;-56
2024/01/31 00:56:36;;;;;;;8.30;5.95;;;;;;;;;;5056444;28;20116;-54
2024/01/31 00:59:02;;;;;;;6.60;5.40;;;;;;;;;;5055946;28;20383;-56
2024/01/31 01:01:27;;;;;;;8.95;6.28;;;;;;;;;;5055384;28;20024;-54
2024/01/31 01:03:53;;;;;;;7.95;5.95;;;;;;;;;;5055631;28;20048;-56
2024/01/31 01:06:19;;;;;;;6.90;5.53;;;;;;;;;;5056149;28;20025;-53
2024/01/31 01:08:45;;;;;;;7.55;6.18;;;;;;;;;;5055288;28;20033;-54
2024/01/31 01:11:11;;;;;;;8.27;6.88;;;;;;;;;;5053905;28;20049;-56
2024/01/31 01:13:37;;;;;;;7.38;5.45;;;;;;;;;;5055457;28;20025;-55
2024/01/31 01:16:03;;;;;;;6.82;5.53;;;;;;;;;;5055059;28;20025;-53
2024/01/31 01:18:29;;;;;;;6.75;6.07;;;;;;;;;;5055369;28;20033;-51
2024/01/31 01:20:55;;;;;;;6.93;5.68;;;;;;;;;;5055066;28;20108;-53
2024/01/31 01:23:21;;;;;;;11.32;6.13;;;;;;;;;;5055551;28;20422;-50
2024/01/31 01:25:47;;;;;;;8.48;6.63;;;;;;;;;;5055013;28;20044;-53
2024/01/31 01:28:13;;;;;;;8.98;5.28;;;;;;;;;;5055596;28;20028;-53
2024/01/31 01:30:39;;;;;;;9.32;5.95;;;;;;;;;;5055426;28;20064;-52
2024/01/31 01:33:05;;;;;;;7.43;6.32;;;;;;;;;;5054903;28;20110;-54
2024/01/31 01:35:31;;;;;;;10.27;6.47;;;;;;;;;;5054804;28;20381;-55
2024/01/31 01:37:57;;;;;;;8.35;5.70;;;;;;;;;;5055075;28;20029;-55
2024/01/31 01:40:23;;;;;;;8.80;5.90;;;;;;;;;;5054885;28;20449;-52
2024/01/31 01:42:49;;;;;;;7.13;5.97;;;;;;;;;;5054689;28;20040;-55
2024/01/31 01:45:15;;;;;;;8.40;5.45;;;;;;;;;;5055114;28;20059;-53
2024/01/31 01:47:42;;;;;;;10.10;5.90;;;;;;;;;;5054825;28;20051;-54
2024/01/31 01:50:09;;;;;;;7.13;5.82;;;;;;;;;;5054414;28;20029;-51
2024/01/31 01:52:35;;;;;;;8.77;5.82;;;;;;;;;;5054970;28;20102;-53
2024/01/31 01:55:04;;;;;;;7.53;5.88;;;;;;;;;;5054008;28;20490;-54
2024/01/31 01:57:33;;;;;;;7.15;5.53;;;;;;;;;;5054089;28;20492;-54
2024/01/31 01:59:59;;;;;;;9.30;6.70;;;;;;;;;;5054326;28;20040;-56
2024/01/31 02:02:26;;;;;;;6.93;5.75;;;;;;;;;;5054317;28;20056;-56
2024/01/31 02:04:53;;;;;;;5.78;4.95;;;;;;;;;;5054226;28;20107;-54
2024/01/31 02:07:24;;;;;;;6.18;5.57;;;;;;;;;;5054198;28;20079;-52
2024/01/31 02:09:51;;;;;;;9.35;5.78;;;;;;;;;;5054425;28;20417;-53
2024/01/31 02:12:17;;;;;;;8.10;5.40;;;;;;;;;;5054155;28;20048;-53
2024/01/31 02:14:47;;;;;;;6.43;5.13;;;;;;;;;;5054035;28;20025;-55
2024/01/31 02:17:14;;;;;;;7.53;5.30;;;;;;;;;;5054411;28;20059;-56
2024/01/31 02:19:40;;;;;;;11.15;6.63;;;;;;;;;;5054054;28;20501;-54
2024/01/31 02:22:09;;;;;;;8.20;5.07;;;;;;;;;;5053620;28;20025;-51
2024/01/31 02:24:35;;;;;;;7.00;4.97;;;;;;;;;;5053906;28;20108;-53
2024/01/31 02:27:01;;;;;;;8.00;5.82;;;;;;;;;;5053555;28;20075;-51
2024/01/31 02:29:27;;;;;;;7.32;5.35;;;;;;;;;;5054386;28;20056;-55
2024/01/31 02:31:52;;;;;;;6.40;5.07;;;;;;;;;;5053908;28;20044;-56
2024/01/31 02:34:18;;;;;;;7.75;5.25;;;;;;;;;;5053569;28;20029;-55
2024/01/31 02:36:44;;;;;;;6.22;5.63;;;;;;;;;;5053734;28;20027;-53
2024/01/31 02:39:10;;;;;;;7.35;5.28;;;;;;;;;;5053723;28;20072;-53
2024/01/31 02:41:36;;;;;;;7.00;5.68;;;;;;;;;;5054494;28;20103;-50
2024/01/31 02:44:02;;;;;;;7.65;5.38;;;;;;;;;;5053988;28;20025;-53
2024/01/31 02:46:28;;;;;;;5.15;4.60;;;;;;;;;;5053642;28;20436;-54
2024/01/31 02:48:54;;;;;;;6.63;5.72;;;;;;;;;;5054293;28;20052;-53
2024/01/31 02:51:20;;;;;;;6.90;5.85;;;;;;;;;;5053360;28;20021;-54
2024/01/31 02:53:46;;;;;;;7.82;5.40;;;;;;;;;;5053609;28;20155;-55
2024/01/31 02:56:12;;;;;;;5.68;4.75;;;;;;;;;;5054489;28;20056;-55
2024/01/31 02:58:38;;;;;;;6.32;5.45;;;;;;;;;;5053543;28;20371;-54
2024/01/31 03:01:07;;;;;;;5.97;4.90;;;;;;;;;;5053859;28;20021;-52
2024/01/31 03:03:33;;;;;;;7.95;5.88;;;;;;;;;;5053542;28;20033;-55
2024/01/31 03:05:59;;;;;;;8.32;5.20;;;;;;;;;;5054052;28;20029;-53
2024/01/31 03:08:24;;;;;;;7.93;6.40;;;;;;;;;;5054381;28;20047;-56
2024/01/31 03:10:50;;;;;;;5.47;4.78;;;;;;;;;;5053524;28;20394;-57
2024/01/31 03:13:16;;;;;;;10.60;5.97;;;;;;;;;;5053578;28;20025;-56
2024/01/31 03:15:42;;;;;;;6.35;5.32;;;;;;;;;;5053342;28;20024;-56
2024/01/31 03:18:08;;;;;;;6.97;5.13;;;;;;;;;;5054084;28;20025;-50
2024/01/31 03:20:34;;;;;;;6.47;5.45;;;;;;;;;;5053558;28;20037;-54
2024/01/31 03:23:00;;;;;;;5.75;5.13;;;;;;;;;;5053881;28;20358;-51
2024/01/31 03:25:27;;;;;;;6.25;4.93;;;;;;;;;;5053400;28;20417;-54
2024/01/31 03:27:53;;;;;;;7.82;6.10;;;;;;;;;;5053909;28;20025;-50
2024/01/31 03:30:19;;;;;;;6.95;5.43;;;;;;;;;;5053304;28;20387;-51
2024/01/31 03:32:45;;;;;;;9.10;6.00;;;;;;;;;;5054586;28;20222;-51
2024/01/31 03:35:11;;;;;;;6.18;4.78;;;;;;;;;;5055150;28;20056;-55
2024/01/31 03:37:37;;;;;;;6.63;5.43;;;;;;;;;;5057155;28;20106;-54
2024/01/31 03:40:04;;;;;;;7.78;6.00;;;;;;;;;;5057204;28;20036;-53
2024/01/31 03:42:30;;;;;;;7.05;5.82;;;;;;;;;;5057321;28;20378;-56
2024/01/31 03:44:57;;;;;;;9.40;5.28;;;;;;;;;;5056896;28;20025;-54
2024/01/31 03:47:23;;;;;;;8.30;5.63;;;;;;;;;;5056875;28;20021;-49
2024/01/31 03:49:51;;;;;;;7.50;5.72;;;;;;;;;;5057192;28;20043;-53
2024/01/31 03:52:17;;;;;;;7.85;4.72;;;;;;;;;;5056809;28;20112;-54
2024/01/31 03:54:43;;;;;;;6.63;5.03;;;;;;;;;;5057241;28;20081;-52
2024/01/31 03:57:09;;;;;;;7.22;5.75;;;;;;;;;;5056430;28;20035;-53
2024/01/31 03:59:35;;;;;;;6.43;4.97;;;;;;;;;;5057190;28;20123;-50
2024/01/31 04:02:01;;;;;;;6.20;5.07;;;;;;;;;;5056832;28;20084;-54
2024/01/31 04:04:27;;;;;;;10.25;5.75;;;;;;;;;;5056631;28;20067;-54
2024/01/31 04:06:53;;;;;;;5.03;4.53;;;;;;;;;;5056826;28;20025;-50
2024/01/31 04:09:19;;;;;;;5.97;5.32;;;;;;;;;;5056769;28;20029;-50
2024/01/31 04:11:45;;;;;;;7.50;4.97;;;;;;;;;;5057148;28;20056;-54
2024/01/31 04:14:11;;;;;;;9.73;5.03;;;;;;;;;;5057022;28;20328;-51
2024/01/31 04:16:37;;;;;;;6.30;5.30;;;;;;;;;;5056238;28;20032;-51
2024/01/31 04:19:03;;;;;;;6.95;5.15;;;;;;;;;;5056564;28;20033;-54
2024/01/31 04:21:29;;;;;;;6.70;5.10;;;;;;;;;;5056431;28;20064;-53
2024/01/31 04:23:55;;;;;;;9.00;5.97;;;;;;;;;;5056751;28;20355;-51
2024/01/31 04:26:21;;;;;;;8.90;4.70;;;;;;;;;;5056607;28;20032;-53
2024/01/31 04:28:47;;;;;;;6.30;4.88;;;;;;;;;;5056880;28;20509;-54
2024/01/31 04:31:14;;;;;;;5.10;4.32;;;;;;;;;;5055964;28;20032;-50
2024/01/31 04:33:40;;;;;;;5.22;4.72;;;;;;;;;;5055582;28;20524;-53
2024/01/31 04:36:06;;;;;;;11.13;5.25;;;;;;;;;;5056431;28;20060;-52
2024/01/31 04:38:32;;;;;;;5.43;4.63;;;;;;;;;;5056407;28;20450;-56
2024/01/31 04:40:58;;;;;;;8.15;5.68;;;;;;;;;;5055482;28;20037;-55
2024/01/31 04:43:24;;;;;;;6.57;5.40;;;;;;;;;;5055850;28;20104;-53
2024/01/31 04:45:50;;;;;;;7.97;5.07;;;;;;;;;;5056133;28;20075;-55
2024/01/31 04:48:16;;;;;;;7.53;4.78;;;;;;;;;;5056374;28;20029;-55
2024/01/31 04:50:42;;;;;;;6.15;5.43;;;;;;;;;;5055677;28;20025;-55
2024/01/31 04:53:07;;;;;;;6.45;4.35;;;;;;;;;;5056221;28;20029;-55
2024/01/31 04:55:33;;;;;;;9.65;4.72;;;;;;;;;;5055778;28;20124;-56
2024/01/31 04:58:00;;;;;;;6.50;4.32;;;;;;;;;;5056085;28;20363;-55
2024/01/31 05:00:26;;;;;;;7.68;5.53;;;;;;;;;;5055953;28;20206;-54
2024/01/31 05:02:52;;;;;;;7.20;4.90;;;;;;;;;;5056047;28;20032;-51
2024/01/31 05:05:19;;;;;;;5.88;4.97;;;;;;;;;;5056066;28;20514;-56
2024/01/31 05:07:45;;;;;;;5.80;4.13;;;;;;;;;;5056012;28;20021;-55
2024/01/31 05:10:11;;;;;;;7.15;4.70;;;;;;;;;;5055402;28;20029;-56
2024/01/31 05:12:38;;;;;;;9.95;4.50;;;;;;;;;;5055034;28;20186;-54
2024/01/31 05:15:04;;;;;;;5.85;4.78;;;;;;;;;;5055420;28;20039;-54
2024/01/31 05:17:30;;;;;;;6.05;4.70;;;;;;;;;;5055533;28;20150;-53
2024/01/31 05:19:56;;;;;;;7.60;4.65;;;;;;;;;;5055039;28;20115;-55
2024/01/31 05:22:22;;;;;;;7.47;4.50;;;;;;;;;;5055058;28;20025;-54
2024/01/31 05:24:48;;;;;;;7.63;3.97;;;;;;;;;;5055596;28;20029;-56
2024/01/31 05:27:14;;;;;;;7.03;5.05;;;;;;;;;;5055054;28;20029;-55
2024/01/31 05:29:40;;;;;;;6.95;4.60;;;;;;;;;;5055757;28;20091;-55
2024/01/31 05:32:06;;;;;;;6.57;4.57;;;;;;;;;;5055488;28;20037;-55
2024/01/31 05:34:32;;;;;;;8.15;4.60;;;;;;;;;;5055610;28;20024;-55
2024/01/31 05:37:01;;;;;;;6.72;4.95;;;;;;;;;;5054524;28;20025;-54
2024/01/31 05:39:27;;;;;;;6.82;4.38;;;;;;;;;;5055188;28;20037;-55
2024/01/31 05:41:53;;;;;;;8.07;5.13;;;;;;;;;;5054345;28;20471;-54
2024/01/31 05:44:21;;;;;;;5.05;4.13;;;;;;;;;;5054624;28;20149;-56
2024/01/31 05:46:47;;;;;;;6.60;5.15;;;;;;;;;;5054185;28;20036;-52
2024/01/31 05:49:16;;;;;;;6.20;4.75;;;;;;;;;;5055204;28;20033;-57
2024/01/31 05:51:42;;;;;;;6.32;5.03;;;;;;;;;;5054381;28;20115;-56
2024/01/31 05:54:08;;;;;;;4.70;3.85;;;;;;;;;;5054284;28;20119;-55
2024/01/31 05:56:36;;;;;;;8.93;5.20;;;;;;;;;;5055037;28;20358;-54
2024/01/31 05:59:02;;;;;;;6.07;4.75;;;;;;;;;;5054305;28;20124;-56
2024/01/31 06:01:29;;;;;;;6.35;4.47;;;;;;;;;;5054240;28;20554;-54
2024/01/31 06:03:54;;;;;;;6.40;4.88;;;;;;;;;;5054426;28;20387;-53
2024/01/31 06:06:23;;;;;;;6.68;4.32;;;;;;;;;;5054728;28;20033;-55
2024/01/31 06:08:50;;;;;;;5.88;4.57;;;;;;;;;;5054933;28;20083;-58
2024/01/31 06:11:15;;;;;;;5.28;4.15;;;;;;;;;;5054552;28;20479;-56
2024/01/31 06:13:41;;;;;;;7.32;3.92;;;;;;;;;;5053752;28;20061;-52
2024/01/31 06:16:10;;;;;;;5.70;4.00;;;;;;;;;;5053803;28;20029;-54
2024/01/31 06:18:37;;;;;;;6.20;4.50;;;;;;;;;;5054062;28;20025;-54
2024/01/31 06:21:03;;;;;;;6.80;4.32;;;;;;;;;;5054544;28;20387;-54
2024/01/31 06:23:30;;;;;;;6.18;4.25;;;;;;;;;;5054465;28;20048;-51
2024/01/31 06:25:56;;;;;;;5.68;4.45;;;;;;;;;;5054291;28;20075;-51
2024/01/31 06:28:22;;;;;;;5.30;3.92;;;;;;;;;;5054783;28;20060;-52
2024/01/31 06:30:58;;;;;;;5.47;4.40;;;;;;;;;;5054020;28;20071;-52
2024/01/31 06:33:29;;;;;;;5.68;4.93;;;;;;;;;;5054572;28;20123;-51
2024/01/31 06:35:55;;;;;;;8.05;5.53;;;;;;;;;;5054495;28;20107;-56
2024/01/31 06:38:21;;;;;;;5.68;4.80;;;;;;;;;;5054484;28;20475;-55
2024/01/31 06:40:47;;;;;;;6.22;5.30;;;;;;;;;;5054055;28;20037;-54
2024/01/31 06:43:13;;;;;;;6.80;5.20;;;;;;;;;;5054656;28;20402;-50
2024/01/31 06:45:39;;;;;;;6.05;5.03;;;;;;;;;;5053684;28;20025;-54
2024/01/31 06:48:08;;;;;;;8.10;4.60;;;;;;;;;;5054586;28;20025;-55
2024/01/31 06:50:33;;;;;;;7.80;5.72;;;;;;;;;;5053514;28;20108;-55
2024/01/31 06:52:59;;;;;;;10.63;5.70;;;;;;;;;;5053700;28;20129;-55
2024/01/31 06:55:25;;;;;;;7.25;5.15;;;;;;;;;;5053278;28;20106;-56
2024/01/31 06:57:51;;;;;;;9.05;5.18;;;;;;;;;;5053286;28;20509;-53
2024/01/31 07:00:17;;;;;;;6.18;5.18;;;;;;;;;;5053530;28;20073;-53
2024/01/31 07:02:44;;;;;;;7.05;5.50;;;;;;;;;;5054068;28;20022;-54
2024/01/31 07:05:10;;;;;;;7.50;5.57;;;;;;;;;;5053510;28;20107;-55
2024/01/31 07:07:36;;;;;;;8.07;6.40;;;;;;;;;;5053543;28;20056;-56
2024/01/31 07:10:02;;;;;;;9.52;6.30;;;;;;;;;;5056694;28;20028;-55
2024/01/31 07:12:28;;;;;;;8.65;6.60;;;;;;;;;;5057543;28;20063;-54
2024/01/31 07:14:54;;;;;;;8.30;6.88;;;;;;;;;;5057468;28;20017;-56
2024/01/31 07:17:20;;;;;;;9.90;7.07;;;;;;;;;;5057973;28;20025;-56
2024/01/31 07:19:45;;;;;;;11.85;6.43;;;;;;;;;;5057901;28;20055;-55
2024/01/31 07:22:11;;;;;;;7.53;6.43;;;;;;;;;;5056793;28;20036;-56
2024/01/31 07:24:38;;;;;;;10.18;6.72;;;;;;;;;;5057434;28;20029;-55
2024/01/31 07:27:04;;;;;;;11.68;7.63;;;;;;;;;;5057258;28;20036;-53
2024/01/31 07:29:30;;;;;;;9.38;6.78;;;;;;;;;;5057853;28;20405;-57
2024/01/31 07:31:56;;;;;;;9.98;7.43;;;;;;;;;;5057753;28;20083;-53
2024/01/31 07:34:22;;;;;;;8.57;6.68;;;;;;;;;;5057246;28;20104;-55
2024/01/31 07:36:48;;;;;;;9.23;7.88;;;;;;;;;;5057932;28;20359;-56
2024/01/31 07:39:14;;;;;;;10.32;7.63;;;;;;;;;;5057686;28;20029;-56
2024/01/31 07:41:40;;;;;;;10.98;6.38;;;;;;;;;;5057344;28;20455;-56
2024/01/31 07:44:06;;;;;;;11.30;8.02;;;;;;;;;;5057346;28;20025;-56
2024/01/31 07:46:32;;;;;;;11.32;6.97;;;;;;;;;;5056674;28;20463;-55
2024/01/31 07:48:58;;;;;;;9.18;8.13;;;;;;;;;;5056994;28;20029;-57
2024/01/31 07:51:24;;;;;;;12.70;7.13;;;;;;;;;;5057401;28;20021;-58
2024/01/31 07:53:50;;;;;;;8.68;7.10;;;;;;;;;;5057375;28;20435;-56
2024/01/31 07:56:16;;;;;;;12.38;8.25;;;;;;;;;;5056731;28;20044;-54
2024/01/31 07:58:42;;;;;;;8.48;7.57;;;;;;;;;;5057019;28;20159;-53
2024/01/31 08:01:08;;;;;;;9.57;7.90;;;;;;;;;;5056709;28;20112;-58
2024/01/31 08:03:38;;;;;;;9.15;7.75;;;;;;;;;;5056679;28;20378;-58
2024/01/31 08:06:05;;;;;;;10.98;8.32;;;;;;;;;;5057457;28;20044;-54
2024/01/31 08:08:31;;;;;;;12.77;8.35;;;;;;;;;;5057522;28;20355;-53
2024/01/31 08:10:59;;;;;;;9.95;7.45;;;;;;;;;;5056222;28;20020;-56
2024/01/31 08:13:25;;;;;;;8.32;6.97;;;;;;;;;;5056433;28;20027;-53
2024/01/31 08:15:51;;;;;;;8.13;7.32;;;;;;;;;;5057171;28;20060;-57
2024/01/31 08:18:17;;;;;;;10.27;7.45;;;;;;;;;;5056302;28;20386;-54
2024/01/31 08:20:44;;;;;;;9.02;7.10;;;;;;;;;;5055664;28;20115;-55
2024/01/31 08:23:10;;;;;;;10.25;7.65;;;;;;;;;;5056303;28;20024;-53
2024/01/31 08:25:36;;;;;;;9.13;7.43;;;;;;;;;;5056293;28;20025;-55
2024/01/31 08:28:02;;;;;;;9.32;8.23;;;;;;;;;;5055924;28;20497;-56
2024/01/31 08:30:28;;;;;;;12.32;7.22;;;;;;;;;;5056167;28;20029;-52
2024/01/31 08:32:54;;;;;;;9.45;7.82;;;;;;;;;;5056687;28;20145;-54
2024/01/31 08:35:20;;;;;;;10.32;7.85;;;;;;;;;;5056347;28;20459;-55
2024/01/31 08:37:46;;;;;;;9.55;7.45;;;;;;;;;;5056326;28;20029;-56
2024/01/31 08:40:12;;;;;;;8.40;7.55;;;;;;;;;;5055809;28;20120;-57
2024/01/31 08:42:38;;;;;;;10.35;7.55;;;;;;;;;;5055973;28;20032;-57
2024/01/31 08:45:06;;;;;;;12.15;7.75;;;;;;;;;;5056380;28;20029;-57
2024/01/31 08:47:32;;;;;;;9.35;7.47;;;;;;;;;;5056203;28;20445;-57
2024/01/31 08:49:58;;;;;;;13.00;7.78;;;;;;;;;;5055866;28;20055;-57
2024/01/31 08:52:24;;;;;;;10.80;8.48;;;;;;;;;;5056460;28;20021;-57
2024/01/31 08:54:50;;;;;;;10.80;8.27;;;;;;;;;;5056030;28;20475;-56
2024/01/31 08:57:16;;;;;;;12.63;8.00;;;;;;;;;;5055673;28;20025;-56
2024/01/31 08:59:42;;;;;;;11.50;9.85;;;;;;;;;;5056134;28;20056;-55
2024/01/31 09:02:08;;;;;;;9.15;7.97;;;;;;;;;;5055417;28;20029;-55
2024/01/31 09:04:35;;;;;;;8.45;7.57;;;;;;;;;;5055482;28;20040;-56
2024/01/31 09:07:13;;;;;;;9.52;7.78;;;;;;;;;;5055931;28;20044;-54
2024/01/31 09:09:39;;;;;;;13.80;8.15;;;;;;;;;;5055933;28;20037;-55
2024/01/31 09:12:06;;;;;;;10.32;8.93;;;;;;;;;;5055404;28;20025;-55
2024/01/31 09:14:32;;;;;;;11.90;8.57;;;;;;;;;;5055816;28;20071;-57
2024/01/31 09:16:58;;;;;;;13.68;10.68;;;;;;;;;;5055129;28;20033;-56
2024/01/31 09:19:25;;;;;;;13.73;10.13;;;;;;;;;;5054942;28;20025;-57
2024/01/31 09:21:51;;;;;;;15.52;10.98;;;;;;;;;;5055774;28;20108;-57
2024/01/31 09:24:17;;;;;;;12.50;10.55;;;;;;;;;;5055408;28;20037;-58
2024/01/31 09:26:43;;;;;;;13.93;10.05;;;;;;;;;;5054877;28;20040;-57
2024/01/31 09:29:10;;;;;;;12.57;10.38;;;;;;;;;;5055526;28;20033;-58
2024/01/31 09:31:36;;;;;;;12.13;9.30;;;;;;;;;;5054798;28;20029;-54
2024/01/31 09:34:01;;;;;;;11.60;10.40;;;;;;;;;;5054403;28;20419;-57
2024/01/31 09:36:27;;;;;;;11.57;9.63;;;;;;;;;;5054836;28;20422;-57
2024/01/31 09:38:55;;;;;;;13.20;10.18;;;;;;;;;;5054798;28;20352;-57
2024/01/31 09:41:20;;;;;;;10.40;8.90;;;;;;;;;;5054494;28;20040;-56
2024/01/31 09:43:47;;;;;;;11.90;10.48;;;;;;;;;;5055069;28;20025;-57
2024/01/31 09:46:13;;;;;;;12.05;10.10;;;;;;;;;;5054867;28;20036;-55
2024/01/31 09:48:40;;;;;;;11.48;10.27;;;;;;;;;;5054707;28;20025;-57
2024/01/31 09:51:07;;;;;;;13.60;10.80;;;;;;;;;;5054537;28;20033;-57
2024/01/31 09:53:33;;;;;;;11.90;10.52;;;;;;;;;;5054703;28;20053;-54
2024/01/31 09:56:00;;;;;;;16.88;10.30;;;;;;;;;;5055073;28;20045;-56
2024/01/31 09:58:26;;;;;;;10.82;8.73;;;;;;;;;;5054282;28;20098;-56
2024/01/31 10:00:52;;;;;;;12.15;9.85;;;;;;;;;;5054412;28;20025;-55
2024/01/31 10:03:18;;;;;;;14.35;9.57;;;;;;;;;;5054151;28;20040;-55
2024/01/31 10:05:45;;;;;;;9.43;8.18;;;;;;;;;;5055177;28;20048;-57
2024/01/31 10:08:11;;;;;;;9.25;8.35;;;;;;;;;;5054937;28;20409;-54
2024/01/31 10:10:37;;;;;;;10.52;9.40;;;;;;;;;;5054267;28;20411;-54
2024/01/31 10:13:05;;;;;;;10.90;9.77;;;;;;;;;;5054068;28;20021;-55
2024/01/31 10:15:31;;;;;;;12.02;9.70;;;;;;;;;;5054671;28;20037;-55
2024/01/31 10:17:58;;;;;;;11.05;8.63;;;;;;;;;;5054520;28;20033;-56
2024/01/31 10:20:24;;;;;;;10.32;9.23;;;;;;;;;;5054128;28;20033;-57
2024/01/31 10:22:50;;;;;;;14.32;10.60;;;;;;;;;;5054672;28;20024;-55
2024/01/31 10:25:18;;;;;;;9.98;8.18;;;;;;;;;;5054555;28;20029;-56
2024/01/31 10:27:47;;;;;;;12.10;10.18;;;;;;;;;;5054778;28;20033;-55
2024/01/31 10:30:14;;;;;;;10.98;9.85;;;;;;;;;;5054227;28;20033;-56
2024/01/31 10:32:40;;;;;;;12.50;8.93;;;;;;;;;;5053954;28;20029;-56
2024/01/31 10:35:07;;;;;;;10.60;8.73;;;;;;;;;;5054020;28;20032;-56
2024/01/31 10:37:34;;;;;;;10.77;9.73;;;;;;;;;;5054246;28;20104;-57
2024/01/31 10:40:00;;;;;;;12.35;9.63;;;;;;;;;;5054212;28;20086;-56
2024/01/31 10:42:26;;;;;;;10.10;8.82;;;;;;;;;;5054302;28;20028;-57
2024/01/31 10:44:53;;;;;;;11.82;8.98;;;;;;;;;;5053406;28;20029;-55
2024/01/31 10:47:19;;;;;;;10.65;8.98;;;;;;;;;;5053602;28;20047;-55
2024/01/31 10:49:45;;;;;;;10.75;8.88;;;;;;;;;;5053804;28;20375;-55
2024/01/31 10:52:14;;;;;;;9.15;7.95;;;;;;;;;;5053388;28;20029;-57
2024/01/31 10:54:52;;;;;;;10.43;9.35;;;;;;;;;;5053175;28;20051;-57
2024/01/31 10:57:21;;;;;;;9.82;8.40;;;;;;;;;;5053391;28;20044;-54
2024/01/31 10:59:49;;;;;;;10.05;8.35;;;;;;;;;;5053944;28;20052;-56
2024/01/31 11:02:18;;;;;;;11.18;9.60;;;;;;;;;;5052058;28;20029;-57
2024/01/31 11:04:45;;;;;;;10.98;9.45;;;;;;;;;;5053306;28;20025;-57
2024/01/31 11:07:19;;;;;;;12.32;9.48;;;;;;;;;;5053973;28;20029;-58
2024/01/31 11:09:45;;;;;;;11.07;9.85;;;;;;;;;;5053826;28;20036;-57
2024/01/31 11:12:12;;;;;;;15.98;10.95;;;;;;;;;;5054081;28;20083;-56
2024/01/31 11:14:40;;;;;;;10.82;9.73;;;;;;;;;;5053148;28;20537;-57
2024/01/31 11:17:12;;;;;;;11.98;10.18;;;;;;;;;;5053480;28;20124;-57
2024/01/31 11:19:44;;;;;;;10.35;8.00;;;;;;;;;;5053419;28;20091;-55
2024/01/31 11:22:10;;;;;;;11.65;8.82;;;;;;;;;;5053448;28;20029;-56
2024/01/31 11:24:39;;;;;;;10.10;8.60;;;;;;;;;;5053430;28;20025;-56
2024/01/31 11:27:06;;;;;;;9.23;8.25;;;;;;;;;;5053904;28;20029;-58
2024/01/31 11:29:32;;;;;;;8.27;7.47;;;;;;;;;;5053934;28;20474;-58
2024/01/31 11:31:58;;;;;;;9.40;8.10;;;;;;;;;;5054077;28;20447;-58
2024/01/31 11:34:24;;;;;;;9.45;7.80;;;;;;;;;;5053290;28;20511;-56
2024/01/31 11:36:50;;;;;;;8.75;7.45;;;;;;;;;;5053743;28;20111;-56
2024/01/31 11:39:16;;;;;;;8.68;7.40;;;;;;;;;;5054067;28;20029;-57
2024/01/31 11:41:45;;;;;;;8.95;8.05;;;;;;;;;;5053224;28;20029;-55
2024/01/31 11:44:14;;;;;;;8.68;7.10;;;;;;;;;;5053653;28;20025;-57
2024/01/31 11:46:40;;;;;;;10.88;7.70;;;;;;;;;;5053764;28;20021;-58
2024/01/31 11:49:06;;;;;;;9.38;8.07;;;;;;;;;;5053717;28;20025;-58
2024/01/31 11:51:33;;;;;;;10.00;7.72;;;;;;;;;;5052823;28;20025;-57
2024/01/31 11:53:59;;;;;;;8.80;7.15;;;;;;;;;;5052965;28;20037;-57
2024/01/31 11:56:26;;;;;;;11.93;9.73;;;;;;;;;;5055972;28;20033;-58
2024/01/31 11:58:53;;;;;;;10.80;9.07;;;;;;;;;;5057279;28;20032;-57
2024/01/31 12:01:19;;;;;;;12.40;10.88;;;;;;;;;;5056654;28;20033;-56
2024/01/31 12:03:45;;;;;;;12.18;10.82;;;;;;;;;;5057216;28;20032;-57
2024/01/31 12:06:17;;;;;;;10.90;9.82;;;;;;;;;;5056411;28;20067;-57
2024/01/31 12:08:46;;;;;;;11.20;10.10;;;;;;;;;;5056940;28;20025;-57
2024/01/31 12:11:13;;;;;;;15.18;12.38;;;;;;;;;;5056570;28;20417;-57
2024/01/31 12:13:39;;;;;;;15.82;12.18;;;;;;;;;;5056470;28;20086;-58
2024/01/31 12:16:06;;;;;;;12.23;10.77;;;;;;;;;;5056757;28;20028;-57
2024/01/31 12:18:32;;;;;;;16.98;11.23;;;;;;;;;;5056973;28;20032;-57
2024/01/31 12:21:01;;;;;;;12.73;10.68;;;;;;;;;;5056594;28;20366;-58
2024/01/31 12:23:27;;;;;;;20.17;12.88;;;;;;;;;;5056304;28;20029;-56
2024/01/31 12:25:53;;;;;;;18.60;11.27;;;;;;;;;;5056025;28;20033;-57
2024/01/31 12:28:19;;;;;;;13.02;11.32;;;;;;;;;;5056512;28;20104;-57
2024/01/31 12:30:45;;;;;;;12.57;11.38;;;;;;;;;;5056678;28;20033;-56
2024/01/31 12:33:11;;;;;;;13.95;12.52;;;;;;;;;;5056174;28;20025;-58
2024/01/31 12:35:37;;;;;;;18.80;11.82;;;;;;;;;;5056128;28;20029;-58
2024/01/31 12:38:03;;;;;;;12.73;11.43;;;;;;;;;;5056250;28;20031;-57
2024/01/31 12:40:29;;;;;;;13.90;11.07;;;;;;;;;;5056473;28;20029;-53
2024/01/31 12:42:56;;;;;;;13.73;11.75;;;;;;;;;;5056185;28;20458;-56
2024/01/31 12:45:22;;;;;;;19.23;11.93;;;;;;;;;;5055935;28;20033;-58
2024/01/31 12:47:48;;;;;;;13.38;11.98;;;;;;;;;;5056241;28;20379;-56
2024/01/31 12:50:14;;;;;;;13.02;11.57;;;;;;;;;;5056238;28;20093;-58
2024/01/31 12:52:40;;;;;;;14.70;12.85;;;;;;;;;;5055668;28;20021;-56
2024/01/31 12:55:06;;;;;;;14.02;11.80;;;;;;;;;;5055574;28;20059;-58
2024/01/31 12:57:32;;;;;;;13.27;11.80;;;;;;;;;;5055555;28;20037;-58
2024/01/31 12:59:58;;;;;;;16.05;11.13;;;;;;;;;;5055833;28;20029;-57
2024/01/31 13:02:24;;;;;;;13.32;11.65;;;;;;;;;;5055600;28;20029;-57
2024/01/31 13:04:50;;;;;;;13.40;11.18;;;;;;;;;;5056117;28;20350;-57
2024/01/31 13:07:16;;;;;;;13.93;12.40;;;;;;;;;;5055352;28;20048;-56
2024/01/31 13:09:42;;;;;;;14.07;12.75;;;;;;;;;;5056041;28;20037;-57
2024/01/31 13:12:08;;;;;;;13.68;12.13;;;;;;;;;;5056169;28;20112;-57
2024/01/31 13:14:34;;;;;;;16.90;13.20;;;;;;;;;;5055301;28;20025;-54
2024/01/31 13:17:00;;;;;;;15.75;13.68;;;;;;;;;;5056120;28;20029;-57
2024/01/31 13:19:26;;;;;;;18.80;13.15;;;;;;;;;;5055802;28;20112;-57
2024/01/31 13:21:52;;;;;;;19.05;15.95;;;;;;;;;;5055754;28;20535;-54
2024/01/31 13:24:18;;;;;;;14.60;12.73;;;;;;;;;;5055144;28;20163;-57
2024/01/31 13:26:52;;;;;;;16.58;14.80;;;;;;;;;;5055154;28;20062;-57
2024/01/31 13:29:18;;;;;;;13.25;11.88;;;;;;;;;;5055122;28;20082;-57
2024/01/31 13:31:45;;;;;;;16.13;13.77;;;;;;;;;;5055041;28;20183;-55
2024/01/31 13:34:11;;;;;;;16.92;13.13;;;;;;;;;;5055000;28;20119;-57
2024/01/31 13:36:37;;;;;;;16.48;13.63;;;;;;;;;;5054939;28;20025;-56
2024/01/31 13:39:03;;;;;;;18.30;13.27;;;;;;;;;;5055738;28;20075;-55
2024/01/31 13:41:29;;;;;;;14.38;12.75;;;;;;;;;;5055352;28;20029;-55
2024/01/31 13:43:55;;;;;;;14.45;12.77;;;;;;;;;;5055376;28;20083;-55
2024/01/31 13:46:22;;;;;;;16.25;13.52;;;;;;;;;;5054740;28;20021;-54
2024/01/31 13:48:48;;;;;;;14.00;12.38;;;;;;;;;;5054461;28;20071;-58
2024/01/31 13:51:17;;;;;;;17.13;11.80;;;;;;;;;;5053483;28;20025;-57
2024/01/31 13:53:43;;;;;;;13.57;11.90;;;;;;;;;;5055154;28;20104;-57
2024/01/31 13:56:09;;;;;;;20.45;13.15;;;;;;;;;;5054141;28;20076;-57
2024/01/31 13:58:35;;;;;;;14.60;12.35;;;;;;;;;;5054861;28;20510;-55
2024/01/31 14:01:01;;;;;;;13.45;12.13;;;;;;;;;;5054820;28;20037;-55
2024/01/31 14:03:27;;;;;;;15.10;12.35;;;;;;;;;;5054854;28;20102;-57
2024/01/31 14:05:53;;;;;;;14.60;12.60;;;;;;;;;;5054915;28;20033;-57
2024/01/31 14:08:19;;;;;;;17.73;14.10;;;;;;;;;;5054723;28;20028;-56
2024/01/31 14:10:45;;;;;;;14.80;13.15;;;;;;;;;;5055210;28;20029;-57
2024/01/31 14:13:12;;;;;;;16.42;13.98;;;;;;;;;;5054743;28;20391;-54
2024/01/31 14:15:39;;;;;;;18.25;15.23;;;;;;;;;;5054214;28;20029;-54
2024/01/31 14:18:05;;;;;;;19.73;15.00;;;;;;;;;;5054511;28;20104;-56
2024/01/31 14:20:32;;;;;;;15.82;14.13;;;;;;;;;;5054102;28;20116;-55
2024/01/31 14:22:58;;;;;;;16.95;15.20;;;;;;;;;;5054208;28;20382;-54
2024/01/31 14:25:24;;;;;;;20.25;14.63;;;;;;;;;;5054785;28;20086;-53
2024/01/31 14:27:50;;;;;;;18.35;14.27;;;;;;;;;;5054406;28;20025;-58